sensor_id;sensor_type;location;lat;lon;timestamp;pressure;altitude;pressure_sealevel;temperature;humidity
25232;BME280;13176;51.140;6.290;2022-12-18T00:01:20;102158.19;;;-0.45;67.55
25232;BME280;13176;51.140;6.290;2022-12-18T00:03:47;102129.00;;;-0.63;67.25
25232;BME280;13176;51.140;6.290;2022-12-18T00:06:14;102161.06;;;-0.39;67.29
25232;BME280;13176;51.140;6.290;2022-12-18T00:08:42;102163.47;;;-0.42;67.17
25232;BME280;13176;51.140;6.290;2022-12-18T00:11:11;102163.63;;;-0.39;67.11
25232;BME280;13176;51.140;6.290;2022-12-18T00:13:38;102094.50;;;-0.69;67.30
25232;BME280;13176;51.140;6.290;2022-12-18T00:16:08;102025.06;;;-1.06;67.06
25232;BME280;13176;51.140;6.290;2022-12-18T00:18:36;102113.66;;;-0.47;67.07
25232;BME280;13176;51.140;6.290;2022-12-18T00:21:05;102153.38;;;-0.23;67.15
25232;BME280;13176;51.140;6.290;2022-12-18T00:23:33;102075.78;;;-0.68;67.12
25232;BME280;13176;51.140;6.290;2022-12-18T00:26:03;102095.06;;;-0.43;66.38
25232;BME280;13176;51.140;6.290;2022-12-18T00:28:30;102104.53;;;-0.42;66.75
25232;BME280;13176;51.140;6.290;2022-12-18T00:33:27;102116.19;;;-0.31;66.29
25232;BME280;13176;51.140;6.290;2022-12-18T00:35:53;102117.97;;;-0.30;65.93
25232;BME280;13176;51.140;6.290;2022-12-18T00:38:20;102116.69;;;-0.22;66.27
25232;BME280;13176;51.140;6.290;2022-12-18T00:40:46;102124.75;;;-0.14;66.10
25232;BME280;13176;51.140;6.290;2022-12-18T00:43:12;102118.13;;;-0.27;65.92
25232;BME280;13176;51.140;6.290;2022-12-18T00:45:39;102138.16;;;-0.04;65.71
25232;BME280;13176;51.140;6.290;2022-12-18T00:48:05;102134.47;;;-0.09;65.92
25232;BME280;13176;51.140;6.290;2022-12-18T00:50:32;101995.94;;;-1.08;65.85
25232;BME280;13176;51.140;6.290;2022-12-18T00:52:58;102135.59;;;-0.20;65.75
25232;BME280;13176;51.140;6.290;2022-12-18T00:55:25;102080.03;;;-0.37;65.98
25232;BME280;13176;51.140;6.290;2022-12-18T00:57:52;102079.00;;;-0.56;65.87
25232;BME280;13176;51.140;6.290;2022-12-18T01:00:18;102139.97;;;-0.49;66.76
25232;BME280;13176;51.140;6.290;2022-12-18T01:02:45;102033.53;;;-1.07;66.52
25232;BME280;13176;51.140;6.290;2022-12-18T01:05:13;102111.88;;;-0.48;66.57
25232;BME280;13176;51.140;6.290;2022-12-18T01:07:39;102077.78;;;-0.79;66.47
25232;BME280;13176;51.140;6.290;2022-12-18T01:10:07;102137.66;;;-0.29;66.67
25232;BME280;13176;51.140;6.290;2022-12-18T01:12:34;102107.47;;;-0.50;66.43
25232;BME280;13176;51.140;6.290;2022-12-18T01:15:00;102015.50;;;-1.10;66.83
25232;BME280;13176;51.140;6.290;2022-12-18T01:17:27;102092.34;;;-0.62;66.63
25232;BME280;13176;51.140;6.290;2022-12-18T01:19:53;102073.22;;;-0.68;66.61
25232;BME280;13176;51.140;6.290;2022-12-18T01:22:19;101967.94;;;-1.36;66.78
25232;BME280;13176;51.140;6.290;2022-12-18T01:24:46;102092.50;;;-0.59;66.76
25232;BME280;13176;51.140;6.290;2022-12-18T01:27:12;102081.94;;;-0.65;66.97
25232;BME280;13176;51.140;6.290;2022-12-18T01:29:39;102121.16;;;-0.34;66.43
25232;BME280;13176;51.140;6.290;2022-12-18T01:32:05;102093.00;;;-0.50;66.06
25232;BME280;13176;51.140;6.290;2022-12-18T01:34:31;102136.56;;;-0.18;66.23
25232;BME280;13176;51.140;6.290;2022-12-18T01:36:58;102015.81;;;-0.88;66.37
25232;BME280;13176;51.140;6.290;2022-12-18T01:39:25;102070.09;;;-0.63;65.81
25232;BME280;13176;51.140;6.290;2022-12-18T01:41:51;102135.03;;;-0.46;66.10
25232;BME280;13176;51.140;6.290;2022-12-18T01:52:35;102119.50;;;-0.33;66.03
25232;BME280;13176;51.140;6.290;2022-12-18T01:55:07;102137.84;;;-0.42;66.00
25232;BME280;13176;51.140;6.290;2022-12-18T01:57:34;102118.44;;;-0.53;66.18
25232;BME280;13176;51.140;6.290;2022-12-18T02:00:06;102113.31;;;-0.53;66.02
25232;BME280;13176;51.140;6.290;2022-12-18T02:02:33;102022.50;;;-1.06;66.07
25232;BME280;13176;51.140;6.290;2022-12-18T02:05:00;102101.97;;;-0.74;66.15
25232;BME280;13176;51.140;6.290;2022-12-18T02:07:57;102107.88;;;-0.75;66.43
25232;BME280;13176;51.140;6.290;2022-12-18T02:10:30;102133.16;;;-0.65;66.19
25232;BME280;13176;51.140;6.290;2022-12-18T02:13:20;102073.69;;;-0.75;66.39
25232;BME280;13176;51.140;6.290;2022-12-18T02:16:02;102134.94;;;-0.32;65.67
25232;BME280;13176;51.140;6.290;2022-12-18T02:18:36;102080.00;;;-0.69;65.74
25232;BME280;13176;51.140;6.290;2022-12-18T02:23:57;102104.22;;;-0.48;65.73
25232;BME280;13176;51.140;6.290;2022-12-18T02:26:36;102098.28;;;-0.47;65.63
25232;BME280;13176;51.140;6.290;2022-12-18T02:29:08;102116.75;;;-0.52;66.21
25232;BME280;13176;51.140;6.290;2022-12-18T02:31:47;102011.25;;;-1.09;66.34
25232;BME280;13176;51.140;6.290;2022-12-18T02:34:18;102107.63;;;-0.47;66.05
25232;BME280;13176;51.140;6.290;2022-12-18T02:36:46;102065.69;;;-0.65;65.83
25232;BME280;13176;51.140;6.290;2022-12-18T02:39:15;102038.56;;;-0.78;65.71
25232;BME280;13176;51.140;6.290;2022-12-18T02:41:42;102060.25;;;-0.71;65.58
25232;BME280;13176;51.140;6.290;2022-12-18T02:44:12;102120.28;;;-0.34;65.85
25232;BME280;13176;51.140;6.290;2022-12-18T02:46:41;102078.09;;;-0.57;65.42
25232;BME280;13176;51.140;6.290;2022-12-18T02:51:52;102043.09;;;-1.04;65.63
25232;BME280;13176;51.140;6.290;2022-12-18T02:54:46;102129.53;;;-0.38;65.66
25232;BME280;13176;51.140;6.290;2022-12-18T02:57:19;102122.75;;;-0.36;65.70
25232;BME280;13176;51.140;6.290;2022-12-18T02:59:58;102100.41;;;-0.54;65.37
25232;BME280;13176;51.140;6.290;2022-12-18T03:02:40;102091.06;;;-0.54;65.24
25232;BME280;13176;51.140;6.290;2022-12-18T03:05:16;102120.72;;;-0.43;65.67
25232;BME280;13176;51.140;6.290;2022-12-18T03:07:50;102106.44;;;-0.54;65.60
25232;BME280;13176;51.140;6.290;2022-12-18T03:10:23;102086.72;;;-0.71;66.17
25232;BME280;13176;51.140;6.290;2022-12-18T03:12:59;102117.25;;;-0.59;66.29
25232;BME280;13176;51.140;6.290;2022-12-18T03:15:30;102050.38;;;-0.96;66.55
25232;BME280;13176;51.140;6.290;2022-12-18T03:18:03;102004.53;;;-1.37;66.01
25232;BME280;13176;51.140;6.290;2022-12-18T03:20:34;102018.34;;;-1.04;66.45
25232;BME280;13176;51.140;6.290;2022-12-18T03:23:07;102011.19;;;-1.11;66.09
25232;BME280;13176;51.140;6.290;2022-12-18T03:25:38;102013.22;;;-1.19;66.25
25232;BME280;13176;51.140;6.290;2022-12-18T03:28:07;102091.03;;;-0.70;66.30
25232;BME280;13176;51.140;6.290;2022-12-18T03:30:38;102111.06;;;-0.63;66.13
25232;BME280;13176;51.140;6.290;2022-12-18T03:33:10;102102.75;;;-0.59;66.10
25232;BME280;13176;51.140;6.290;2022-12-18T03:35:41;102095.19;;;-0.72;66.04
25232;BME280;13176;51.140;6.290;2022-12-18T03:38:09;102077.28;;;-0.88;66.17
25232;BME280;13176;51.140;6.290;2022-12-18T03:41:01;102069.44;;;-0.91;66.45
25232;BME280;13176;51.140;6.290;2022-12-18T03:43:43;102095.78;;;-0.77;66.33
25232;BME280;13176;51.140;6.290;2022-12-18T03:46:20;102096.56;;;-0.78;67.15
25232;BME280;13176;51.140;6.290;2022-12-18T03:48:56;102092.91;;;-0.67;66.25
25232;BME280;13176;51.140;6.290;2022-12-18T03:51:50;102065.69;;;-0.65;65.78
25232;BME280;13176;51.140;6.290;2022-12-18T03:54:18;102085.44;;;-0.63;65.48
25232;BME280;13176;51.140;6.290;2022-12-18T03:56:49;102082.59;;;-0.53;65.58
25232;BME280;13176;51.140;6.290;2022-12-18T03:59:21;102054.72;;;-0.79;65.66
25232;BME280;13176;51.140;6.290;2022-12-18T04:01:50;102037.56;;;-0.96;65.87
25232;BME280;13176;51.140;6.290;2022-12-18T04:04:19;101953.94;;;-1.43;66.06
25232;BME280;13176;51.140;6.290;2022-12-18T04:06:47;102050.00;;;-0.71;65.76
25232;BME280;13176;51.140;6.290;2022-12-18T04:09:15;102061.50;;;-0.79;65.54
25232;BME280;13176;51.140;6.290;2022-12-18T04:11:42;101988.78;;;-1.14;65.81
25232;BME280;13176;51.140;6.290;2022-12-18T04:14:10;102069.47;;;-0.75;65.76
25232;BME280;13176;51.140;6.290;2022-12-18T04:16:43;101983.00;;;-1.26;66.10
25232;BME280;13176;51.140;6.290;2022-12-18T04:19:09;102046.78;;;-0.99;66.29
25232;BME280;13176;51.140;6.290;2022-12-18T04:21:36;102019.47;;;-1.14;66.12
25232;BME280;13176;51.140;6.290;2022-12-18T04:24:02;102068.97;;;-0.84;66.88
25232;BME280;13176;51.140;6.290;2022-12-18T04:26:29;102013.97;;;-1.06;66.46
25232;BME280;13176;51.140;6.290;2022-12-18T04:28:55;102062.41;;;-0.79;66.14
25232;BME280;13176;51.140;6.290;2022-12-18T04:31:21;102086.25;;;-0.64;66.10
25232;BME280;13176;51.140;6.290;2022-12-18T04:33:48;102031.75;;;-0.93;65.89
25232;BME280;13176;51.140;6.290;2022-12-18T04:36:14;102059.03;;;-0.78;66.14
25232;BME280;13176;51.140;6.290;2022-12-18T04:38:41;102055.97;;;-0.71;66.03
25232;BME280;13176;51.140;6.290;2022-12-18T04:41:07;102032.31;;;-0.83;65.98
25232;BME280;13176;51.140;6.290;2022-12-18T04:43:34;101995.41;;;-1.02;66.32
25232;BME280;13176;51.140;6.290;2022-12-18T04:46:02;101923.94;;;-1.45;66.00
25232;BME280;13176;51.140;6.290;2022-12-18T04:48:29;101994.50;;;-1.03;66.63
25232;BME280;13176;51.140;6.290;2022-12-18T04:50:55;102050.06;;;-0.86;67.09
25232;BME280;13176;51.140;6.290;2022-12-18T04:53:22;101967.97;;;-1.20;66.66
25232;BME280;13176;51.140;6.290;2022-12-18T04:55:48;102022.53;;;-0.90;67.16
25232;BME280;13176;51.140;6.290;2022-12-18T04:58:14;102020.06;;;-0.72;66.70
25232;BME280;13176;51.140;6.290;2022-12-18T05:00:41;101958.50;;;-1.06;66.67
25232;BME280;13176;51.140;6.290;2022-12-18T05:03:08;101989.47;;;-0.85;66.38
25232;BME280;13176;51.140;6.290;2022-12-18T05:05:35;101980.38;;;-0.96;66.46
25232;BME280;13176;51.140;6.290;2022-12-18T05:08:01;102053.28;;;-0.58;66.42
25232;BME280;13176;51.140;6.290;2022-12-18T05:10:28;102005.09;;;-0.97;66.22
25232;BME280;13176;51.140;6.290;2022-12-18T05:13:03;102041.28;;;-0.75;66.11
25232;BME280;13176;51.140;6.290;2022-12-18T05:15:30;101927.97;;;-1.34;66.06
25232;BME280;13176;51.140;6.290;2022-12-18T05:17:58;102078.03;;;-0.58;66.56
25232;BME280;13176;51.140;6.290;2022-12-18T05:20:25;102073.06;;;-0.55;66.26
25232;BME280;13176;51.140;6.290;2022-12-18T05:22:53;102079.06;;;-0.55;66.30
25232;BME280;13176;51.140;6.290;2022-12-18T05:25:21;102057.81;;;-0.84;66.04
25232;BME280;13176;51.140;6.290;2022-12-18T05:27:48;102095.84;;;-0.60;66.17
25232;BME280;13176;51.140;6.290;2022-12-18T05:30:15;102089.59;;;-0.65;66.06
25232;BME280;13176;51.140;6.290;2022-12-18T05:32:42;102039.00;;;-1.01;66.12
25232;BME280;13176;51.140;6.290;2022-12-18T05:35:10;101986.34;;;-1.27;66.51
25232;BME280;13176;51.140;6.290;2022-12-18T05:37:36;102047.66;;;-0.99;66.35
25232;BME280;13176;51.140;6.290;2022-12-18T05:40:09;102077.59;;;-0.82;66.33
25232;BME280;13176;51.140;6.290;2022-12-18T05:42:36;101996.00;;;-1.22;66.43
25232;BME280;13176;51.140;6.290;2022-12-18T05:45:03;102057.34;;;-0.93;66.61
25232;BME280;13176;51.140;6.290;2022-12-18T05:47:29;102072.50;;;-0.82;66.26
25232;BME280;13176;51.140;6.290;2022-12-18T05:49:55;102047.81;;;-0.96;66.09
25232;BME280;13176;51.140;6.290;2022-12-18T05:52:22;102077.59;;;-0.82;66.23
25232;BME280;13176;51.140;6.290;2022-12-18T05:54:48;102048.13;;;-0.90;66.01
25232;BME280;13176;51.140;6.290;2022-12-18T05:57:15;101954.41;;;-1.50;65.97
25232;BME280;13176;51.140;6.290;2022-12-18T05:59:41;102098.44;;;-0.76;66.29
25232;BME280;13176;51.140;6.290;2022-12-18T06:02:08;102038.03;;;-1.03;66.17
25232;BME280;13176;51.140;6.290;2022-12-18T06:04:34;102059.03;;;-0.94;66.14
25232;BME280;13176;51.140;6.290;2022-12-18T06:07:01;102086.41;;;-0.77;66.12
25232;BME280;13176;51.140;6.290;2022-12-18T06:09:30;102077.78;;;-0.79;66.66
25232;BME280;13176;51.140;6.290;2022-12-18T06:11:56;102026.94;;;-1.03;66.46
25232;BME280;13176;51.140;6.290;2022-12-18T06:14:23;102058.72;;;-0.84;66.30
25232;BME280;13176;51.140;6.290;2022-12-18T06:16:50;102037.25;;;-1.02;66.63
25232;BME280;13176;51.140;6.290;2022-12-18T06:19:18;102078.56;;;-0.64;66.19
25232;BME280;13176;51.140;6.290;2022-12-18T06:21:44;101959.56;;;-1.34;66.34
25232;BME280;13176;51.140;6.290;2022-12-18T06:24:10;102032.44;;;-0.96;66.87
25232;BME280;13176;51.140;6.290;2022-12-18T06:26:38;102058.88;;;-0.81;66.99
25232;BME280;13176;51.140;6.290;2022-12-18T06:29:05;102055.53;;;-0.80;66.57
25232;BME280;13176;51.140;6.290;2022-12-18T06:31:31;102035.63;;;-1.00;67.14
25232;BME280;13176;51.140;6.290;2022-12-18T06:33:58;102034.50;;;-1.05;66.74
25232;BME280;13176;51.140;6.290;2022-12-18T06:36:24;102050.63;;;-0.91;67.13
25232;BME280;13176;51.140;6.290;2022-12-18T06:38:50;102049.34;;;-0.83;66.71
25232;BME280;13176;51.140;6.290;2022-12-18T06:41:19;102069.91;;;-0.66;66.48
25232;BME280;13176;51.140;6.290;2022-12-18T06:43:46;102038.94;;;-0.86;66.80
25232;BME280;13176;51.140;6.290;2022-12-18T06:46:12;101941.28;;;-1.56;67.40
25232;BME280;13176;51.140;6.290;2022-12-18T06:48:39;102033.50;;;-0.92;67.34
25232;BME280;13176;51.140;6.290;2022-12-18T06:51:05;102024.09;;;-1.08;67.22
25232;BME280;13176;51.140;6.290;2022-12-18T06:53:32;102072.50;;;-0.82;67.22
25232;BME280;13176;51.140;6.290;2022-12-18T06:56:00;102043.09;;;-1.04;67.04
25232;BME280;13176;51.140;6.290;2022-12-18T06:58:34;102060.31;;;-0.86;66.87
25232;BME280;13176;51.140;6.290;2022-12-18T07:01:03;102038.03;;;-1.18;67.46
25232;BME280;13176;51.140;6.290;2022-12-18T07:03:30;102072.00;;;-0.91;67.01
25232;BME280;13176;51.140;6.290;2022-12-18T07:05:57;102002.81;;;-1.07;67.07
25232;BME280;13176;51.140;6.290;2022-12-18T07:08:23;102025.41;;;-1.00;66.87
25232;BME280;13176;51.140;6.290;2022-12-18T07:10:49;102041.44;;;-0.88;66.69
25232;BME280;13176;51.140;6.290;2022-12-18T07:13:21;101993.22;;;-1.26;67.07
25232;BME280;13176;51.140;6.290;2022-12-18T07:15:49;102034.38;;;-0.92;67.26
25232;BME280;13176;51.140;6.290;2022-12-18T07:18:15;102004.59;;;-1.06;66.78
25232;BME280;13176;51.140;6.290;2022-12-18T07:20:41;102024.59;;;-0.99;66.93
25232;BME280;13176;51.140;6.290;2022-12-18T07:23:08;102053.03;;;-0.94;67.52
25232;BME280;13176;51.140;6.290;2022-12-18T07:25:35;102034.31;;;-0.93;66.96
25232;BME280;13176;51.140;6.290;2022-12-18T07:28:02;101954.50;;;-1.32;66.69
25232;BME280;13176;51.140;6.290;2022-12-18T07:30:28;102004.28;;;-1.12;66.78
25232;BME280;13176;51.140;6.290;2022-12-18T07:32:55;102021.88;;;-1.02;67.38
25232;BME280;13176;51.140;6.290;2022-12-18T07:35:21;101985.72;;;-1.08;66.45
25232;BME280;13176;51.140;6.290;2022-12-18T07:37:50;102038.41;;;-0.81;66.63
25232;BME280;13176;51.140;6.290;2022-12-18T07:40:17;102019.41;;;-1.00;66.57
25232;BME280;13176;51.140;6.290;2022-12-18T07:42:43;102036.63;;;-0.82;66.31
25232;BME280;13176;51.140;6.290;2022-12-18T07:45:09;102030.28;;;-0.88;66.73
25232;BME280;13176;51.140;6.290;2022-12-18T07:47:37;102043.69;;;-0.78;67.29
25232;BME280;13176;51.140;6.290;2022-12-18T07:50:04;101953.88;;;-1.28;67.32
25232;BME280;13176;51.140;6.290;2022-12-18T07:52:32;102035.03;;;-0.80;67.58
25232;BME280;13176;51.140;6.290;2022-12-18T07:55:02;101962.03;;;-1.04;66.67
25232;BME280;13176;51.140;6.290;2022-12-18T07:57:29;101999.50;;;-0.74;66.61
25232;BME280;13176;51.140;6.290;2022-12-18T08:00:15;101991.34;;;-0.83;67.36
25232;BME280;13176;51.140;6.290;2022-12-18T08:02:42;101952.13;;;-0.98;67.12
25232;BME280;13176;51.140;6.290;2022-12-18T08:05:09;101971.66;;;-0.84;67.03
25232;BME280;13176;51.140;6.290;2022-12-18T08:07:35;101989.81;;;-0.79;67.46
25232;BME280;13176;51.140;6.290;2022-12-18T08:10:01;101949.25;;;-0.88;67.38
25232;BME280;13176;51.140;6.290;2022-12-18T08:12:29;101966.03;;;-0.77;66.99
25232;BME280;13176;51.140;6.290;2022-12-18T08:14:55;101842.72;;;-1.33;66.79
25232;BME280;13176;51.140;6.290;2022-12-18T08:17:22;101960.13;;;-0.76;67.23
25232;BME280;13176;51.140;6.290;2022-12-18T08:19:48;101921.06;;;-1.04;67.47
25232;BME280;13176;51.140;6.290;2022-12-18T08:22:14;101856.09;;;-1.39;67.47
25232;BME280;13176;51.140;6.290;2022-12-18T08:24:41;101944.91;;;-0.89;67.72
25232;BME280;13176;51.140;6.290;2022-12-18T08:27:07;101903.31;;;-0.85;67.10
25232;BME280;13176;51.140;6.290;2022-12-18T08:29:53;101941.53;;;-0.72;66.86
25232;BME280;13176;51.140;6.290;2022-12-18T08:32:20;101945.34;;;-0.64;66.76
25232;BME280;13176;51.140;6.290;2022-12-18T08:34:46;101996.25;;;-0.38;67.24
25232;BME280;13176;51.140;6.290;2022-12-18T08:37:13;101930.84;;;-0.81;67.26
25232;BME280;13176;51.140;6.290;2022-12-18T08:39:39;101917.22;;;-0.80;66.86
25232;BME280;13176;51.140;6.290;2022-12-18T08:42:05;101966.78;;;-0.46;66.75
25232;BME280;13176;51.140;6.290;2022-12-18T08:44:50;101922.09;;;-0.68;67.36
25232;BME280;13176;51.140;6.290;2022-12-18T08:47:17;101941.31;;;-0.43;67.07
25232;BME280;13176;51.140;6.290;2022-12-18T08:49:43;101906.16;;;-0.45;67.07
25232;BME280;13176;51.140;6.290;2022-12-18T08:52:09;101893.16;;;-0.66;67.48
25232;BME280;13176;51.140;6.290;2022-12-18T08:54:36;101943.94;;;-0.41;68.15
25232;BME280;13176;51.140;6.290;2022-12-18T08:57:02;101934.63;;;-0.57;68.06
25232;BME280;13176;51.140;6.290;2022-12-18T08:59:29;101979.25;;;-0.36;67.83
25232;BME280;13176;51.140;6.290;2022-12-18T09:01:55;101940.78;;;-0.36;67.38
25232;BME280;13176;51.140;6.290;2022-12-18T09:04:22;101977.56;;;-0.02;67.12
25232;BME280;13176;51.140;6.290;2022-12-18T09:06:48;101934.53;;;-0.25;67.29
25232;BME280;13176;51.140;6.290;2022-12-18T09:09:15;101962.59;;;0.07;67.37
25232;BME280;13176;51.140;6.290;2022-12-18T09:11:41;101931.25;;;-0.05;67.19
25232;BME280;13176;51.140;6.290;2022-12-18T09:14:09;101968.47;;;0.22;67.74
25232;BME280;13176;51.140;6.290;2022-12-18T09:16:36;101906.78;;;-0.16;67.54
25232;BME280;13176;51.140;6.290;2022-12-18T09:19:03;101941.34;;;0.27;67.89
25232;BME280;13176;51.140;6.290;2022-12-18T09:21:33;101894.31;;;0.09;67.54
25232;BME280;13176;51.140;6.290;2022-12-18T09:24:03;101912.47;;;0.31;67.60
25232;BME280;13176;51.140;6.290;2022-12-18T09:26:33;101875.84;;;0.16;67.45
25232;BME280;13176;51.140;6.290;2022-12-18T09:28:59;101886.66;;;0.28;67.20
25232;BME280;13176;51.140;6.290;2022-12-18T09:31:26;101919.75;;;0.41;67.53
25232;BME280;13176;51.140;6.290;2022-12-18T09:33:54;101921.50;;;0.42;67.35
25232;BME280;13176;51.140;6.290;2022-12-18T09:36:21;101916.38;;;0.42;67.33
25232;BME280;13176;51.140;6.290;2022-12-18T09:38:47;101904.78;;;0.50;67.15
25232;BME280;13176;51.140;6.290;2022-12-18T09:46:41;101927.94;;;0.69;66.92
25232;BME280;13176;51.140;6.290;2022-12-18T09:49:13;101945.47;;;0.79;66.23
25232;BME280;13176;51.140;6.290;2022-12-18T09:51:46;101940.63;;;0.85;66.46
25232;BME280;13176;51.140;6.290;2022-12-18T09:54:20;101918.03;;;0.78;67.12
25232;BME280;13176;51.140;6.290;2022-12-18T09:56:48;101872.50;;;0.55;66.05
25232;BME280;13176;51.140;6.290;2022-12-18T09:59:23;101920.63;;;0.97;66.08
25232;BME280;13176;51.140;6.290;2022-12-18T10:01:50;101843.66;;;0.60;66.38
25232;BME280;13176;51.140;6.290;2022-12-18T10:04:30;101824.69;;;0.57;66.62
25232;BME280;13176;51.140;6.290;2022-12-18T10:07:05;101876.81;;;0.75;66.53
25232;BME280;13176;51.140;6.290;2022-12-18T10:09:53;101915.69;;;1.20;66.00
25232;BME280;13176;51.140;6.290;2022-12-18T10:18:17;101922.16;;;1.51;65.60
25232;BME280;13176;51.140;6.290;2022-12-18T10:20:52;101865.34;;;1.05;65.47
25232;BME280;13176;51.140;6.290;2022-12-18T10:23:33;101823.56;;;1.09;66.08
25232;BME280;13176;51.140;6.290;2022-12-18T10:26:05;101904.50;;;1.59;66.54
25232;BME280;13176;51.140;6.290;2022-12-18T10:28:35;101768.03;;;0.92;65.86
25232;BME280;13176;51.140;6.290;2022-12-18T10:31:05;101845.13;;;1.32;65.33
25232;BME280;13176;51.140;6.290;2022-12-18T10:33:32;101890.81;;;1.80;65.08
25232;BME280;13176;51.140;6.290;2022-12-18T10:35:59;101688.41;;;0.51;65.63
25232;BME280;13176;51.140;6.290;2022-12-18T10:38:29;101769.41;;;1.24;64.78
25232;BME280;13176;51.140;6.290;2022-12-18T10:40:58;101877.72;;;1.74;65.39
25232;BME280;13176;51.140;6.290;2022-12-18T10:43:34;101886.59;;;1.82;65.49
25232;BME280;13176;51.140;6.290;2022-12-18T10:48:29;101832.56;;;1.60;64.99
25232;BME280;13176;51.140;6.290;2022-12-18T10:50:56;101888.53;;;2.08;65.22
25232;BME280;13176;51.140;6.290;2022-12-18T10:53:41;101865.00;;;1.99;65.20
25232;BME280;13176;51.140;6.290;2022-12-18T10:56:08;101870.50;;;2.08;64.87
25232;BME280;13176;51.140;6.290;2022-12-18T10:58:39;101888.16;;;2.21;65.22
25232;BME280;13176;51.140;6.290;2022-12-18T11:01:15;101866.59;;;2.18;64.36
25232;BME280;13176;51.140;6.290;2022-12-18T11:03:45;101723.28;;;1.27;64.33
25232;BME280;13176;51.140;6.290;2022-12-18T11:06:16;101650.75;;;0.92;64.14
25232;BME280;13176;51.140;6.290;2022-12-18T11:08:57;101829.97;;;2.03;64.45
25232;BME280;13176;51.140;6.290;2022-12-18T11:11:24;101855.75;;;2.04;63.96
25232;BME280;13176;51.140;6.290;2022-12-18T11:14:17;101726.34;;;1.39;64.06
25232;BME280;13176;51.140;6.290;2022-12-18T11:16:53;101713.13;;;1.30;63.82
25232;BME280;13176;51.140;6.290;2022-12-18T11:19:43;101771.78;;;1.62;63.81
25232;BME280;13176;51.140;6.290;2022-12-18T11:22:31;101739.75;;;1.54;63.88
25232;BME280;13176;51.140;6.290;2022-12-18T11:24:59;101818.38;;;2.14;64.34
25232;BME280;13176;51.140;6.290;2022-12-18T11:27:49;101678.25;;;1.37;64.05
25232;BME280;13176;51.140;6.290;2022-12-18T11:30:28;101714.06;;;1.54;64.65
25232;BME280;13176;51.140;6.290;2022-12-18T11:35:46;101803.41;;;2.25;65.33
25232;BME280;13176;51.140;6.290;2022-12-18T11:38:36;101704.47;;;1.72;64.58
25232;BME280;13176;51.140;6.290;2022-12-18T11:43:37;101782.63;;;2.21;64.17
25232;BME280;13176;51.140;6.290;2022-12-18T11:46:11;101788.41;;;2.14;63.94
25232;BME280;13176;51.140;6.290;2022-12-18T11:48:53;101787.19;;;2.28;64.17
25232;BME280;13176;51.140;6.290;2022-12-18T11:51:29;101775.72;;;2.20;64.01
25232;BME280;13176;51.140;6.290;2022-12-18T11:53:59;101673.84;;;1.56;63.56
25232;BME280;13176;51.140;6.290;2022-12-18T11:56:35;101799.69;;;2.41;63.34
25232;BME280;13176;51.140;6.290;2022-12-18T12:01:48;101795.06;;;2.56;63.45
25232;BME280;13176;51.140;6.290;2022-12-18T12:07:12;101792.72;;;2.62;62.94
25232;BME280;13176;51.140;6.290;2022-12-18T12:13:10;101784.19;;;2.63;63.59
25232;BME280;13176;51.140;6.290;2022-12-18T12:21:31;101783.00;;;2.78;63.02
25232;BME280;13176;51.140;6.290;2022-12-18T12:27:04;101752.78;;;2.73;63.12
25232;BME280;13176;51.140;6.290;2022-12-18T12:30:00;101750.06;;;2.68;62.93
25232;BME280;13176;51.140;6.290;2022-12-18T12:38:01;101754.63;;;2.77;62.54
25232;BME280;13176;51.140;6.290;2022-12-18T12:40:35;101742.03;;;2.61;62.52
25232;BME280;13176;51.140;6.290;2022-12-18T12:43:24;101753.44;;;2.67;62.04
25232;BME280;13176;51.140;6.290;2022-12-18T12:46:00;101717.50;;;2.70;61.99
25232;BME280;13176;51.140;6.290;2022-12-18T12:51:17;101731.81;;;2.87;62.10
25232;BME280;13176;51.140;6.290;2022-12-18T12:53:45;101697.16;;;2.79;61.79
25232;BME280;13176;51.140;6.290;2022-12-18T12:56:15;101706.00;;;2.86;61.83
25232;BME280;13176;51.140;6.290;2022-12-18T13:01:43;101693.75;;;2.79;62.00
25232;BME280;13176;51.140;6.290;2022-12-18T13:04:23;101716.06;;;3.05;62.15
25232;BME280;13176;51.140;6.290;2022-12-18T13:09:19;101609.94;;;2.38;61.62
25232;BME280;13176;51.140;6.290;2022-12-18T13:11:47;101710.00;;;3.03;61.02
25232;BME280;13176;51.140;6.290;2022-12-18T13:14:34;101697.44;;;2.87;61.78
25232;BME280;13176;51.140;6.290;2022-12-18T13:19:51;101678.91;;;2.72;61.48
25232;BME280;13176;51.140;6.290;2022-12-18T13:22:21;101638.06;;;2.57;61.49
25232;BME280;13176;51.140;6.290;2022-12-18T13:24:49;101631.16;;;2.56;61.14
25232;BME280;13176;51.140;6.290;2022-12-18T13:38:24;101663.44;;;2.72;61.25
25232;BME280;13176;51.140;6.290;2022-12-18T13:41:00;101617.94;;;2.46;61.17
25232;BME280;13176;51.140;6.290;2022-12-18T13:43:31;101554.63;;;2.01;61.14
25232;BME280;13176;51.140;6.290;2022-12-18T13:46:00;101659.72;;;2.64;61.31
25232;BME280;13176;51.140;6.290;2022-12-18T13:48:29;101624.38;;;2.58;61.33
25232;BME280;13176;51.140;6.290;2022-12-18T13:51:07;101621.47;;;2.49;61.35
25232;BME280;13176;51.140;6.290;2022-12-18T13:53:42;101630.56;;;2.65;61.32
25232;BME280;13176;51.140;6.290;2022-12-18T13:56:15;101560.31;;;2.16;60.61
25232;BME280;13176;51.140;6.290;2022-12-18T13:58:42;101565.13;;;2.07;61.11
25232;BME280;13176;51.140;6.290;2022-12-18T14:01:23;101606.53;;;2.39;61.33
25232;BME280;13176;51.140;6.290;2022-12-18T14:03:49;101599.00;;;2.44;60.87
25232;BME280;13176;51.140;6.290;2022-12-18T14:06:16;101656.94;;;2.58;60.91
25232;BME280;13176;51.140;6.290;2022-12-18T14:08:43;101553.34;;;2.14;61.29
25232;BME280;13176;51.140;6.290;2022-12-18T14:11:19;101555.94;;;2.40;60.88
25232;BME280;13176;51.140;6.290;2022-12-18T14:13:48;101515.22;;;2.02;61.52
25232;BME280;13176;51.140;6.290;2022-12-18T14:16:16;101547.38;;;2.15;61.67
25232;BME280;13176;51.140;6.290;2022-12-18T14:18:52;101595.91;;;2.54;61.69
25232;BME280;13176;51.140;6.290;2022-12-18T14:21:28;101628.81;;;2.64;61.58
25232;BME280;13176;51.140;6.290;2022-12-18T14:24:18;101517.56;;;2.21;61.48
25232;BME280;13176;51.140;6.290;2022-12-18T14:26:46;101589.56;;;2.44;61.00
25232;BME280;13176;51.140;6.290;2022-12-18T14:29:26;101556.47;;;2.30;60.82